createdAt,value
2023-02-06T00:00:47.345Z,20.60
2023-02-06T00:04:10.808Z,22.30
2023-02-06T00:07:14.125Z,20.20
2023-02-06T00:10:17.654Z,21.20
2023-02-06T00:13:21.336Z,29.80
2023-02-06T00:16:34.011Z,26.80
2023-02-06T00:19:38.308Z,23.20
2023-02-06T00:22:41.574Z,30.20
2023-02-06T00:25:45.062Z,32.40
2023-02-06T00:28:48.695Z,28.10
2023-02-06T00:31:52.028Z,28.00
2023-02-06T00:34:55.465Z,33.30
2023-02-06T00:38:00.206Z,33.70
2023-02-06T00:41:04.198Z,27.80
2023-02-06T00:44:07.869Z,30.80
2023-02-06T00:47:11.214Z,33.20
2023-02-06T00:50:14.529Z,32.50
2023-02-06T00:53:20.144Z,30.70
2023-02-06T00:56:23.491Z,31.70
2023-02-06T00:59:26.857Z,28.90
2023-02-06T01:02:30.226Z,29.40
2023-02-06T01:05:35.545Z,26.70
2023-02-06T01:08:39.138Z,20.60
2023-02-06T01:11:42.412Z,24.60
2023-02-06T01:14:49.625Z,21.40
2023-02-06T01:17:52.913Z,21.20
2023-02-06T01:20:56.204Z,23.80
2023-02-06T01:23:59.668Z,24.00
2023-02-06T01:27:05.806Z,26.30
2023-02-06T01:30:10.305Z,23.20
2023-02-06T01:33:13.957Z,25.20
2023-02-06T01:36:19.443Z,23.00
2023-02-06T01:39:22.677Z,24.90
2023-02-06T01:42:26.284Z,23.30
2023-02-06T01:45:42.052Z,29.80
2023-02-06T01:48:51.191Z,24.80
2023-02-06T01:52:01.459Z,23.00
2023-02-06T01:55:05.398Z,25.50
2023-02-06T01:58:11.691Z,25.30
2023-02-06T02:01:16.111Z,27.50
2023-02-06T02:04:23.468Z,26.50
2023-02-06T02:07:32.436Z,29.20
2023-02-06T02:10:35.694Z,23.10
2023-02-06T02:13:39.854Z,27.50
2023-02-06T02:17:04.566Z,30.20
2023-02-06T02:20:54.894Z,26.20
2023-02-06T02:24:39.311Z,27.60
2023-02-06T02:27:53.239Z,25.90
2023-02-06T02:31:20.162Z,28.20
2023-02-06T02:34:48.010Z,26.90
2023-02-06T02:37:56.217Z,27.90
2023-02-06T02:41:11.643Z,31.20
2023-02-06T02:44:34.559Z,30.40
2023-02-06T02:51:00.259Z,29.20
2023-02-06T02:54:04.012Z,28.00
2023-02-06T02:57:18.052Z,32.30
2023-02-06T03:00:25.137Z,31.10
2023-02-06T03:03:32.569Z,30.80
2023-02-06T03:06:54.211Z,27.30
2023-02-06T03:10:15.093Z,27.60
2023-02-06T03:13:32.552Z,28.40
2023-02-06T03:16:45.996Z,35.00
2023-02-06T03:19:55.514Z,29.80
2023-02-06T03:23:01.175Z,31.00
2023-02-06T03:26:10.282Z,30.30
2023-02-06T03:29:16.910Z,29.80
2023-02-06T03:32:25.215Z,32.60
2023-02-06T03:35:36.170Z,32.90
2023-02-06T03:38:40.136Z,27.60
2023-02-06T03:41:46.228Z,28.70
2023-02-06T03:44:57.129Z,29.20
2023-02-06T03:48:10.977Z,26.90
2023-02-06T03:51:29.300Z,33.10
2023-02-06T03:54:35.980Z,29.50
2023-02-06T03:57:41.901Z,33.90
2023-02-06T04:00:46.794Z,35.60
2023-02-06T04:03:50.125Z,40.70
2023-02-06T04:06:53.460Z,34.10
2023-02-06T04:09:56.761Z,33.00
2023-02-06T04:13:02.848Z,35.70
2023-02-06T04:16:06.222Z,33.50
2023-02-06T04:19:09.589Z,29.50
2023-02-06T04:22:15.361Z,34.10
2023-02-06T04:25:18.938Z,34.60
2023-02-06T04:28:22.369Z,31.20
2023-02-06T04:31:25.922Z,35.50
2023-02-06T04:34:29.912Z,32.70
2023-02-06T04:37:33.324Z,34.80
2023-02-06T04:40:37.507Z,33.20
2023-02-06T04:43:40.751Z,35.70
2023-02-06T04:46:44.819Z,33.60
2023-02-06T04:49:48.241Z,32.80
2023-02-06T04:52:51.777Z,34.60
2023-02-06T04:56:02.552Z,35.10
2023-02-06T04:59:06.304Z,37.30
2023-02-06T05:02:09.658Z,35.20
2023-02-06T05:05:13.027Z,29.60
2023-02-06T05:08:16.352Z,32.50
2023-02-06T05:11:19.808Z,35.20
2023-02-06T05:14:23.377Z,27.60
2023-02-06T05:17:26.786Z,30.00
2023-02-06T05:20:30.447Z,30.20
2023-02-06T05:23:33.811Z,33.40
2023-02-06T05:26:37.093Z,34.50
2023-02-06T05:29:40.448Z,41.10
2023-02-06T05:32:43.987Z,33.90
2023-02-06T05:35:47.537Z,35.00
2023-02-06T05:38:51.037Z,35.50
2023-02-06T05:41:54.397Z,33.60
2023-02-06T05:44:58.009Z,39.30
2023-02-06T05:48:01.443Z,38.80
2023-02-06T05:51:04.925Z,36.00
2023-02-06T05:54:08.712Z,40.50
2023-02-06T05:57:12.263Z,43.60
2023-02-06T06:00:16.894Z,44.20
2023-02-06T06:03:20.447Z,41.60
2023-02-06T06:06:23.858Z,49.80
2023-02-06T06:09:27.179Z,48.20
2023-02-06T06:12:30.665Z,46.90
2023-02-06T06:15:34.745Z,42.60
2023-02-06T06:18:38.310Z,46.10
2023-02-06T06:21:41.742Z,56.50
2023-02-06T06:24:45.123Z,69.00
2023-02-06T06:27:48.450Z,67.40
2023-02-06T06:30:52.115Z,61.50
2023-02-06T06:33:55.394Z,64.50
2023-02-06T06:36:58.726Z,62.70
2023-02-06T06:40:02.112Z,65.80
2023-02-06T06:43:05.473Z,68.70
2023-02-06T06:46:08.984Z,67.20
2023-02-06T06:49:12.209Z,57.90
2023-02-06T06:52:24.483Z,51.30
2023-02-06T06:55:28.374Z,51.70
2023-02-06T06:58:31.908Z,56.30
2023-02-06T07:08:59.778Z,61.20
2023-02-06T07:12:03.192Z,59.60
2023-02-06T07:15:07.491Z,66.40
2023-02-06T07:18:11.802Z,56.70
2023-02-06T07:21:16.040Z,58.80
2023-02-06T07:24:19.651Z,56.70
2023-02-06T07:27:22.919Z,49.80
2023-02-06T07:30:26.353Z,53.60
2023-02-06T07:33:30.049Z,46.40
2023-02-06T07:36:33.411Z,54.50
2023-02-06T07:39:36.896Z,47.60
2023-02-06T07:42:40.527Z,43.60
2023-02-06T07:46:05.316Z,45.70
2023-02-06T07:49:08.624Z,45.80
2023-02-06T07:52:11.823Z,57.00
2023-02-06T07:55:15.148Z,48.80
2023-02-06T07:58:20.612Z,52.10
2023-02-06T08:01:24.147Z,48.10
2023-02-06T08:04:29.505Z,50.80
2023-02-06T08:07:33.332Z,46.90
2023-02-06T08:10:39.864Z,37.10
2023-02-06T08:13:44.013Z,34.90
2023-02-06T08:16:50.795Z,37.80
2023-02-06T08:19:54.579Z,32.00
2023-02-06T08:22:58.059Z,37.30
2023-02-06T08:26:03.550Z,32.30
2023-02-06T08:29:08.113Z,30.80
2023-02-06T08:32:12.363Z,28.50
2023-02-06T08:35:15.799Z,31.60
2023-02-06T08:38:19.063Z,32.10
2023-02-06T08:41:25.755Z,31.70
2023-02-06T08:44:29.702Z,31.00
2023-02-06T08:47:33.055Z,30.60
2023-02-06T08:50:36.629Z,27.20
2023-02-06T08:53:40.232Z,32.90
2023-02-06T08:56:43.593Z,28.60
2023-02-06T08:59:47.050Z,30.30
2023-02-06T09:02:53.404Z,28.10
2023-02-06T09:06:09.432Z,28.70
2023-02-06T09:09:13.415Z,19.60
2023-02-06T09:12:16.778Z,19.60
2023-02-06T09:15:20.173Z,21.80
2023-02-06T09:18:23.499Z,18.80
2023-02-06T09:21:28.898Z,17.80
2023-02-06T09:24:32.350Z,19.70
2023-02-06T09:27:36.449Z,17.10
2023-02-06T09:30:39.796Z,20.00
2023-02-06T09:33:43.063Z,15.00
2023-02-06T09:36:46.478Z,17.40
2023-02-06T09:39:49.668Z,18.40
2023-02-06T09:42:54.440Z,17.60
2023-02-06T09:46:06.020Z,16.30
2023-02-06T09:49:21.176Z,16.00
2023-02-06T09:52:26.995Z,19.50
2023-02-06T09:55:41.384Z,18.40
2023-02-06T09:58:52.723Z,20.00
2023-02-06T10:01:59.173Z,19.50
2023-02-06T10:05:19.649Z,18.00
2023-02-06T10:08:38.301Z,20.70
2023-02-06T10:11:48.383Z,17.90
2023-02-06T10:15:00.478Z,16.80
2023-02-06T10:18:16.994Z,16.80
2023-02-06T10:21:32.530Z,15.60
2023-02-06T10:25:02.305Z,14.70
2023-02-06T10:28:23.221Z,16.40
2023-02-06T10:31:26.868Z,14.30
2023-02-06T10:34:51.069Z,17.90
2023-02-06T10:38:32.914Z,17.30
2023-02-06T10:41:45.629Z,17.70
2023-02-06T10:45:17.440Z,18.90
2023-02-06T10:48:39.154Z,19.80
2023-02-06T10:51:49.372Z,25.70
2023-02-06T10:54:57.333Z,23.60
2023-02-06T10:58:15.673Z,19.90
2023-02-06T11:01:26.446Z,22.80
2023-02-06T11:04:42.478Z,21.80
2023-02-06T11:07:50.320Z,20.80
2023-02-06T11:10:56.081Z,17.90
2023-02-06T11:14:06.067Z,18.00
2023-02-06T11:17:11.581Z,19.70
2023-02-06T11:20:28.380Z,22.20
2023-02-06T11:23:34.720Z,16.30
2023-02-06T11:26:51.180Z,13.10
2023-02-06T11:29:55.181Z,13.40
2023-02-06T11:33:04.964Z,14.70
2023-02-06T11:36:27.213Z,12.60
2023-02-06T11:39:30.699Z,16.10
2023-02-06T11:42:36.042Z,15.80
2023-02-06T11:45:41.046Z,13.20
2023-02-06T11:48:47.537Z,11.70
2023-02-06T11:52:03.893Z,13.20
2023-02-06T11:55:23.461Z,15.20
2023-02-06T11:58:29.063Z,13.80
2023-02-06T12:01:44.102Z,16.60
2023-02-06T12:04:48.342Z,14.60
2023-02-06T12:08:16.240Z,10.30
2023-02-06T12:11:23.633Z,10.50
2023-02-06T12:14:36.130Z,14.40
2023-02-06T12:21:16.498Z,16.50
2023-02-06T12:24:43.463Z,14.70
2023-02-06T12:27:46.922Z,12.40
2023-02-06T12:31:03.621Z,14.80
2023-02-06T12:34:25.311Z,16.60
2023-02-06T12:37:41.244Z,16.20
2023-02-06T12:40:47.352Z,18.20
2023-02-06T12:43:59.954Z,14.30
2023-02-06T12:47:21.777Z,13.60
2023-02-06T12:50:39.541Z,13.00
2023-02-06T12:54:18.734Z,14.00
2023-02-06T12:57:28.399Z,15.40
2023-02-06T13:01:04.753Z,14.40
2023-02-06T13:04:23.895Z,13.90
2023-02-06T13:07:28.325Z,19.50
2023-02-06T13:10:34.319Z,17.00
2023-02-06T13:13:43.006Z,16.30
2023-02-06T13:16:51.190Z,18.80
2023-02-06T13:20:13.444Z,18.00
2023-02-06T13:23:23.340Z,22.70
2023-02-06T13:26:48.005Z,15.90
2023-02-06T13:29:54.075Z,14.30
2023-02-06T13:33:20.164Z,15.50
2023-02-06T13:36:41.730Z,15.30
2023-02-06T13:39:48.605Z,13.10
2023-02-06T13:43:10.548Z,13.30
2023-02-06T13:46:24.714Z,10.70
2023-02-06T13:50:15.745Z,13.60
2023-02-06T13:53:32.434Z,15.70
2023-02-06T13:56:59.896Z,14.70
2023-02-06T14:00:20.479Z,16.30
2023-02-06T14:03:31.595Z,13.20
2023-02-06T14:06:56.904Z,13.00
2023-02-06T14:10:15.398Z,14.60
2023-02-06T14:14:02.634Z,22.00
2023-02-06T14:17:33.342Z,14.60
2023-02-06T14:21:15.241Z,11.10
2023-02-06T14:24:26.163Z,14.90
2023-02-06T14:27:32.410Z,11.50
2023-02-06T14:30:55.947Z,13.00
2023-02-06T14:34:10.806Z,13.80
2023-02-06T14:37:23.320Z,13.30
2023-02-06T14:40:30.116Z,13.30
2023-02-06T14:43:38.094Z,14.20
2023-02-06T14:47:37.609Z,14.10
2023-02-06T14:51:34.206Z,13.80
2023-02-06T14:54:38.777Z,13.60
2023-02-06T14:57:45.559Z,13.30
2023-02-06T15:00:48.874Z,14.40
2023-02-06T15:03:52.935Z,18.70
2023-02-06T15:07:00.106Z,14.70
2023-02-06T15:10:06.905Z,15.50
2023-02-06T15:13:36.401Z,16.10
2023-02-06T15:16:50.598Z,15.10
2023-02-06T15:19:54.066Z,17.10
2023-02-06T15:23:16.594Z,16.10
2023-02-06T15:26:50.537Z,19.90
2023-02-06T15:29:54.570Z,24.10
2023-02-06T15:32:57.853Z,24.90
2023-02-06T15:36:04.446Z,28.30
2023-02-06T15:39:09.740Z,21.30
2023-02-06T15:42:13.164Z,24.80
2023-02-06T15:45:28.831Z,18.30
2023-02-06T15:48:47.316Z,20.60
2023-02-06T15:51:54.971Z,23.20
2023-02-06T15:54:59.307Z,20.60
2023-02-06T15:58:05.244Z,18.70
2023-02-06T16:01:19.328Z,25.20
2023-02-06T16:04:32.524Z,21.50
2023-02-06T16:07:36.640Z,21.50
2023-02-06T16:10:41.031Z,25.80
2023-02-06T16:13:46.069Z,29.70
2023-02-06T16:17:01.564Z,28.80
2023-02-06T16:20:24.582Z,38.10
2023-02-06T16:23:29.799Z,33.60
2023-02-06T16:26:49.749Z,28.70
2023-02-06T16:29:56.291Z,28.10
2023-02-06T16:33:08.967Z,34.00
2023-02-06T16:36:14.214Z,38.80
2023-02-06T16:39:17.405Z,41.50
2023-02-06T16:42:23.221Z,35.00
2023-02-06T16:45:28.065Z,38.60
2023-02-06T16:48:31.259Z,47.30
2023-02-06T16:51:35.145Z,61.90
2023-02-06T16:54:38.630Z,44.30
2023-02-06T16:57:45.060Z,54.90
2023-02-06T17:00:48.985Z,64.90
2023-02-06T17:03:59.182Z,68.70
2023-02-06T17:07:04.873Z,76.80
2023-02-06T17:13:30.313Z,75.00
2023-02-06T17:16:34.329Z,71.10
2023-02-06T17:19:41.728Z,73.40
2023-02-06T17:22:45.036Z,78.30
2023-02-06T17:25:51.125Z,77.50
2023-02-06T17:28:54.823Z,75.60
2023-02-06T17:31:59.903Z,80.70
2023-02-06T17:35:03.280Z,79.90
2023-02-06T17:38:08.616Z,80.70
2023-02-06T17:41:11.951Z,79.90
2023-02-06T17:44:18.011Z,77.80
2023-02-06T17:47:21.317Z,84.40
2023-02-06T17:50:26.923Z,79.00
2023-02-06T17:53:30.179Z,76.10
2023-02-06T17:56:34.645Z,85.10
2023-02-06T17:59:37.907Z,92.30
2023-02-06T18:02:41.218Z,95.50
2023-02-06T18:05:45.046Z,94.00
2023-02-06T18:08:48.348Z,93.90
2023-02-06T18:11:51.471Z,91.80
2023-02-06T18:14:54.939Z,105.90
2023-02-06T18:17:59.675Z,110.20
2023-02-06T18:21:02.809Z,107.70
2023-02-06T18:24:06.443Z,108.40
2023-02-06T18:27:10.741Z,107.00
2023-02-06T18:30:15.481Z,105.50
2023-02-06T18:33:18.676Z,114.90
2023-02-06T18:36:23.228Z,148.50
2023-02-06T18:39:26.538Z,137.90
2023-02-06T18:42:48.421Z,131.10
2023-02-06T18:45:51.645Z,138.80
2023-02-06T18:48:55.499Z,158.40
2023-02-06T18:51:58.641Z,177.30
2023-02-06T18:55:02.023Z,179.80
2023-02-06T18:58:06.272Z,168.50
2023-02-06T19:01:14.518Z,175.80
2023-02-06T19:04:19.368Z,158.10
2023-02-06T19:07:22.743Z,158.30
2023-02-06T19:10:26.349Z,150.20
2023-02-06T19:13:29.597Z,159.30
2023-02-06T19:16:34.265Z,154.70
2023-02-06T19:19:37.480Z,146.30
2023-02-06T19:22:40.669Z,153.00
2023-02-06T19:25:43.824Z,183.60
2023-02-06T19:28:47.248Z,199.60
2023-02-06T19:31:50.709Z,188.10
2023-02-06T19:34:53.829Z,185.80
2023-02-06T19:37:56.950Z,175.50
2023-02-06T19:41:15.006Z,162.40
2023-02-06T19:44:19.115Z,169.10
2023-02-06T19:47:22.980Z,198.50
2023-02-06T19:50:26.262Z,178.50
2023-02-06T19:53:32.913Z,199.80
2023-02-06T19:56:41.734Z,190.00
2023-02-06T19:59:45.229Z,188.80
2023-02-06T20:02:48.597Z,185.10
2023-02-06T20:05:51.873Z,206.20
2023-02-06T20:08:57.126Z,202.20
2023-02-06T20:12:00.570Z,218.30
2023-02-06T20:15:04.039Z,219.90
2023-02-06T20:18:07.286Z,200.60
2023-02-06T20:21:27.933Z,219.10
2023-02-06T20:24:32.497Z,220.50
2023-02-06T20:27:35.765Z,218.60
2023-02-06T20:30:39.429Z,228.10
2023-02-06T20:33:43.223Z,230.20
2023-02-06T20:36:47.495Z,227.90
2023-02-06T20:39:50.950Z,218.30
2023-02-06T20:42:57.141Z,200.60
2023-02-06T20:46:00.487Z,206.40
2023-02-06T20:49:09.402Z,205.40
2023-02-06T20:52:12.907Z,207.20
2023-02-06T20:55:16.208Z,211.60
2023-02-06T20:58:20.475Z,196.80
2023-02-06T21:01:27.144Z,192.00
2023-02-06T21:04:33.950Z,201.80
2023-02-06T21:11:09.594Z,207.10
2023-02-06T21:14:13.763Z,222.50
2023-02-06T21:17:17.042Z,225.70
2023-02-06T21:20:20.403Z,231.40
2023-02-06T21:23:24.839Z,249.10
2023-02-06T21:26:28.874Z,233.70
2023-02-06T21:29:32.180Z,229.80
2023-02-06T21:32:35.477Z,212.90
2023-02-06T21:35:40.490Z,235.80
2023-02-06T21:38:44.313Z,248.50
2023-02-06T21:41:51.806Z,281.40
2023-02-06T21:44:55.108Z,258.50
2023-02-06T21:47:58.295Z,261.80
2023-02-06T21:51:21.071Z,251.10
2023-02-06T21:54:24.870Z,265.20
2023-02-06T21:57:28.035Z,272.00
2023-02-06T22:00:31.202Z,271.50
2023-02-06T22:03:34.449Z,274.90
2023-02-06T22:06:38.417Z,282.80
2023-02-06T22:09:41.691Z,280.00
2023-02-06T22:12:48.962Z,288.20
2023-02-06T22:15:52.265Z,287.70
2023-02-06T22:18:56.456Z,319.50
2023-02-06T22:21:59.548Z,344.00
2023-02-06T22:25:02.850Z,367.20
2023-02-06T22:28:06.030Z,382.50
2023-02-06T22:31:13.027Z,389.00
2023-02-06T22:34:18.842Z,422.50
2023-02-06T22:37:22.229Z,558.10
2023-02-06T22:40:25.328Z,613.40
2023-02-06T22:43:29.827Z,580.20
2023-02-06T22:46:37.545Z,567.30
2023-02-06T22:49:40.890Z,506.10
2023-02-06T22:53:02.627Z,477.50
2023-02-06T22:56:29.644Z,437.30
2023-02-06T22:59:32.792Z,370.40
2023-02-06T23:02:37.667Z,348.50
2023-02-06T23:05:41.097Z,307.10
2023-02-06T23:08:45.081Z,263.20
2023-02-06T23:11:49.024Z,255.60
2023-02-06T23:14:52.215Z,246.90
2023-02-06T23:17:55.571Z,245.40
2023-02-06T23:21:02.376Z,227.30
2023-02-06T23:24:07.249Z,216.60
2023-02-06T23:27:10.424Z,239.60
2023-02-06T23:30:13.843Z,208.60
2023-02-06T23:33:17.257Z,198.20
2023-02-06T23:36:22.109Z,209.20
2023-02-06T23:39:25.319Z,199.40
2023-02-06T23:42:29.353Z,199.50
2023-02-06T23:45:33.539Z,198.40
2023-02-06T23:48:39.114Z,223.10
2023-02-06T23:51:42.291Z,207.20
2023-02-06T23:54:45.554Z,177.90
2023-02-06T23:57:48.819Z,169.10
